Terminal Aerodrome Forecast
Issued by NWS

Home | Current Version | Previous Version | Text Only | Print | Product List | Glossary On
Versions: 1 2 3 4 5 6 7 8 9 10 11 12 13 14 15 16
153
FTUS45 KMSO 280536
TAFSMN
TAF
KSMN 280536Z 2806/2906 VRB03KT P6SM BKN100
     FM282000 VRB03KT P6SM VCSH BKN080
     FM282100 36008KT P6SM -SHRA VCTS SCT040CB BKN060=

USA.gov is the U.S. government's official web portal to all federal, state and local government web resources and services.